Time;durP1;ratioP1;P1;durP2;ratioP2;P2;SDS_P1;SDS_P2;PMS_P1;PMS_P2;Temp;Humidity;BMP_temperature;BMP_pressure;BME280_temperature;BME280_humidity;BME280_pressure;Samples;Min_cycle;Max_cycle;Signal;HPM_P1;HPM_P2
2023/09/30 00:02:43;;;;;;;12.90;7.77;;;21.60;34.00;;;;;;10376558;28;20275;-72
2023/09/30 00:07:47;;;;;;;12.70;7.67;;;21.50;34.10;;;;;;10393398;28;20245;-72
2023/09/30 00:12:51;;;;;;;11.10;7.23;;;21.40;34.50;;;;;;10390901;28;20235;-72
2023/09/30 00:17:54;;;;;;;12.17;7.10;;;21.30;34.40;;;;;;10402362;28;20239;-71
2023/09/30 00:22:58;;;;;;;11.40;7.10;;;21.20;34.70;;;;;;10416624;28;20237;-71
2023/09/30 00:28:01;;;;;;;10.60;6.60;;;21.10;35.20;;;;;;10425378;28;20222;-71
2023/09/30 00:33:05;;;;;;;11.23;6.90;;;21.00;35.10;;;;;;10424071;28;20233;-72
2023/09/30 00:38:10;;;;;;;9.93;6.67;;;20.90;35.40;;;;;;10423448;28;20236;-71
2023/09/30 00:43:19;;;;;;;11.07;6.43;;;20.80;35.60;;;;;;10419917;28;20221;-71
2023/09/30 00:48:22;;;;;;;10.63;6.33;;;20.80;36.10;;;;;;10427080;28;20737;-71
2023/09/30 00:53:28;;;;;;;10.83;6.63;;;20.80;35.40;;;;;;10421764;28;20345;-72
2023/09/30 00:58:31;;;;;;;10.17;6.40;;;20.80;36.00;;;;;;10428316;28;20245;-71
2023/09/30 01:03:35;;;;;;;12.47;7.13;;;20.80;35.60;;;;;;10425730;28;20221;-71
2023/09/30 01:08:41;;;;;;;10.27;6.47;;;20.80;35.70;;;;;;10424108;28;20252;-71
2023/09/30 01:13:47;;;;;;;12.90;7.10;;;20.70;36.10;;;;;;10418595;28;20227;-71
2023/09/30 01:18:50;;;;;;;10.13;6.37;;;20.60;35.90;;;;;;10429227;28;20826;-71
2023/09/30 01:23:55;;;;;;;13.77;7.27;;;20.50;36.30;;;;;;10418437;28;20229;-71
2023/09/30 01:28:58;;;;;;;9.43;5.97;;;20.30;36.80;;;;;;10421572;28;20260;-71
2023/09/30 01:34:01;;;;;;;12.27;6.67;;;20.30;36.80;;;;;;10412200;28;20235;-71
2023/09/30 01:39:07;;;;;;;10.83;6.33;;;20.20;36.70;;;;;;10430055;28;20227;-71
2023/09/30 01:44:11;;;;;;;11.20;6.57;;;20.20;36.70;;;;;;10424881;28;20232;-71
2023/09/30 01:49:14;;;;;;;10.97;6.77;;;20.20;36.70;;;;;;10420565;28;20239;-71
2023/09/30 01:54:18;;;;;;;11.13;6.43;;;20.10;36.60;;;;;;10423490;28;20307;-71
2023/09/30 01:59:22;;;;;;;11.70;6.73;;;20.10;37.00;;;;;;10421901;28;20321;-72
2023/09/30 02:04:25;;;;;;;10.63;6.60;;;20.00;36.50;;;;;;10428218;28;20221;-71
2023/09/30 02:09:29;;;;;;;12.43;6.77;;;19.90;36.80;;;;;;10428694;28;20931;-72
2023/09/30 02:14:33;;;;;;;11.37;6.30;;;19.90;37.70;;;;;;10429732;28;20233;-71
2023/09/30 02:19:36;;;;;;;11.23;6.80;;;19.80;37.30;;;;;;10437171;28;20290;-71
2023/09/30 02:24:41;;;;;;;11.43;7.00;;;19.80;37.40;;;;;;10424456;28;20217;-71
2023/09/30 02:29:44;;;;;;;13.43;7.23;;;19.70;37.90;;;;;;10430976;28;20229;-71
2023/09/30 02:34:47;;;;;;;12.43;6.90;;;19.70;37.60;;;;;;10429386;28;20227;-72
2023/09/30 02:39:52;;;;;;;11.87;6.60;;;19.70;37.70;;;;;;10423762;28;20237;-71
2023/09/30 02:44:55;;;;;;;11.53;6.90;;;19.60;38.10;;;;;;10424068;28;20298;-72
2023/09/30 02:49:58;;;;;;;9.10;5.80;;;19.60;37.90;;;;;;10420964;28;20343;-72
2023/09/30 02:55:04;;;;;;;10.40;5.93;;;19.60;38.00;;;;;;10419474;28;20695;-72
2023/09/30 03:00:20;;;;;;;8.43;5.57;;;19.60;38.60;;;;;;10419575;28;20239;-72
2023/09/30 03:05:24;;;;;;;9.23;5.87;;;19.50;38.30;;;;;;10417826;28;20235;-71
2023/09/30 03:10:29;;;;;;;10.83;6.40;;;19.50;38.20;;;;;;10418369;28;20315;-71
2023/09/30 03:15:32;;;;;;;11.00;6.10;;;19.50;38.80;;;;;;10421408;28;20882;-72
2023/09/30 03:20:36;;;;;;;10.80;6.80;;;19.50;38.40;;;;;;10419223;28;20311;-71
2023/09/30 03:25:42;;;;;;;11.33;6.57;;;19.50;38.50;;;;;;10425540;28;20694;-71
2023/09/30 03:30:45;;;;;;;13.13;6.97;;;19.50;38.90;;;;;;10415269;28;21524;-72
2023/09/30 03:35:49;;;;;;;10.67;6.80;;;19.50;38.50;;;;;;10418876;28;20710;-72
2023/09/30 03:40:54;;;;;;;11.23;6.53;;;19.50;38.60;;;;;;10418903;28;20239;-71
2023/09/30 03:45:58;;;;;;;10.67;6.40;;;19.60;39.00;;;;;;10420461;28;20702;-72
2023/09/30 03:51:09;;;;;;;12.30;6.93;;;19.60;38.50;;;;;;10418741;28;20237;-72
2023/09/30 03:56:14;;;;;;;10.40;6.47;;;19.60;39.50;;;;;;10418355;28;20226;-71
2023/09/30 04:01:19;;;;;;;14.97;7.30;;;19.60;38.90;;;;;;10415884;28;20641;-71
2023/09/30 04:06:22;;;;;;;14.20;7.63;;;19.50;38.60;;;;;;10416123;28;20240;-72
2023/09/30 04:11:27;;;;;;;11.57;6.67;;;19.40;38.90;;;;;;10419197;28;20232;-71
2023/09/30 04:16:30;;;;;;;10.10;6.37;;;19.30;39.20;;;;;;10417690;28;20236;-71
2023/09/30 04:21:34;;;;;;;11.87;6.67;;;19.30;38.90;;;;;;10414011;28;20229;-71
2023/09/30 04:26:40;;;;;;;11.13;6.80;;;19.20;38.90;;;;;;10419065;28;20225;-71
2023/09/30 04:31:44;;;;;;;10.93;6.37;;;19.10;39.40;;;;;;10418713;28;20316;-71
2023/09/30 04:36:47;;;;;;;11.47;6.80;;;19.10;39.10;;;;;;10416424;28;20225;-72
2023/09/30 04:41:54;;;;;;;10.17;6.30;;;19.10;39.20;;;;;;10418129;28;20742;-71
2023/09/30 04:46:58;;;;;;;10.93;5.93;;;19.00;39.60;;;;;;10414738;28;20704;-71
2023/09/30 04:52:01;;;;;;;11.70;6.77;;;19.00;39.20;;;;;;10417997;28;20232;-72
2023/09/30 04:57:06;;;;;;;11.10;5.90;;;18.90;39.30;;;;;;10418528;28;20288;-71
2023/09/30 05:02:10;;;;;;;10.17;6.10;;;18.90;39.70;;;;;;10415628;28;20245;-71
2023/09/30 05:07:13;;;;;;;10.47;6.23;;;18.90;39.40;;;;;;10419052;28;20231;-71
2023/09/30 05:12:18;;;;;;;8.77;5.30;;;18.90;39.50;;;;;;10412602;28;20224;-71
2023/09/30 05:17:22;;;;;;;7.73;4.77;;;18.90;39.90;;;;;;10420954;28;20236;-71
2023/09/30 05:22:25;;;;;;;7.87;5.53;;;18.90;39.70;;;;;;10418202;28;20249;-72
2023/09/30 05:27:29;;;;;;;9.03;5.80;;;19.00;39.60;;;;;;10414933;28;20239;-72
2023/09/30 05:32:33;;;;;;;10.87;6.03;;;19.10;40.20;;;;;;10419271;28;20237;-71
2023/09/30 05:37:37;;;;;;;9.40;5.87;;;19.10;39.70;;;;;;10418302;28;20232;-71
2023/09/30 05:42:42;;;;;;;10.60;6.03;;;19.10;40.00;;;;;;10412600;28;20225;-71
2023/09/30 05:47:45;;;;;;;7.70;5.40;;;19.10;40.40;;;;;;10416139;28;21013;-72
2023/09/30 05:52:52;;;;;;;11.00;5.60;;;19.00;40.10;;;;;;10416429;28;20745;-71
2023/09/30 05:57:59;;;;;;;9.90;5.47;;;19.00;40.30;;;;;;10417806;28;20723;-71
2023/09/30 06:03:04;;;;;;;8.90;5.40;;;19.00;40.90;;;;;;10417933;28;20764;-71
2023/09/30 06:08:10;;;;;;;9.43;5.37;;;19.10;40.50;;;;;;10418486;28;20319;-71
2023/09/30 06:13:15;;;;;;;6.77;4.63;;;19.10;40.60;;;;;;10419105;28;20231;-71
2023/09/30 06:18:18;;;;;;;7.93;4.90;;;19.10;40.90;;;;;;10417978;28;20240;-71
2023/09/30 06:23:21;;;;;;;8.27;4.67;;;19.20;40.70;;;;;;10417545;28;20330;-71
2023/09/30 06:28:28;;;;;;;7.00;4.00;;;19.30;40.70;;;;;;10412605;28;20281;-71
2023/09/30 06:33:31;;;;;;;7.23;4.50;;;19.30;41.10;;;;;;10417575;28;20399;-71
2023/09/30 06:38:34;;;;;;;7.37;4.10;;;19.40;40.70;;;;;;10416057;28;20769;-71
2023/09/30 06:43:38;;;;;;;5.77;4.10;;;19.40;40.60;;;;;;10417750;28;20222;-71
2023/09/30 06:48:41;;;;;;;5.93;3.87;;;19.50;41.10;;;;;;10412170;28;20232;-71
2023/09/30 06:53:46;;;;;;;5.53;3.87;;;19.50;40.90;;;;;;10417979;28;20333;-71
2023/09/30 06:58:50;;;;;;;5.23;3.67;;;19.60;40.90;;;;;;10421148;28;20235;-71
2023/09/30 07:03:54;;;;;;;6.33;3.63;;;19.70;41.30;;;;;;10423580;28;20341;-72
2023/09/30 07:08:57;;;;;;;7.77;3.87;;;19.70;40.90;;;;;;10422811;28;20226;-71
2023/09/30 07:14:02;;;;;;;5.73;3.57;;;19.80;40.80;;;;;;10421824;28;20221;-71
2023/09/30 07:19:05;;;;;;;4.03;2.83;;;19.90;41.20;;;;;;10419414;28;20221;-72
2023/09/30 07:24:09;;;;;;;3.40;2.83;;;19.80;40.60;;;;;;10421316;28;20229;-71
2023/09/30 07:29:14;;;;;;;3.63;2.63;;;19.80;40.70;;;;;;10422875;28;20260;-71
2023/09/30 07:34:17;;;;;;;5.17;3.17;;;19.80;41.10;;;;;;10419120;28;20335;-72
2023/09/30 07:39:20;;;;;;;4.10;2.90;;;19.80;41.00;;;;;;10416282;28;20241;-71
2023/09/30 07:44:25;;;;;;;3.80;2.67;;;19.80;41.10;;;;;;10417864;28;20988;-71
2023/09/30 07:49:28;;;;;;;3.73;2.30;;;19.80;41.40;;;;;;10416529;28;20226;-71
2023/09/30 07:54:31;;;;;;;3.73;2.40;;;19.80;41.10;;;;;;10418330;28;20836;-71
2023/09/30 07:59:35;;;;;;;3.30;2.30;;;19.80;41.20;;;;;;10416779;28;20234;-72
2023/09/30 08:04:39;;;;;;;2.23;1.90;;;19.80;41.50;;;;;;10417827;28;20303;-72
2023/09/30 08:09:42;;;;;;;3.00;1.90;;;19.90;41.30;;;;;;10416923;28;20727;-72
2023/09/30 08:14:47;;;;;;;2.97;2.03;;;19.80;41.30;;;;;;10421724;28;20711;-72
2023/09/30 08:19:50;;;;;;;3.40;2.20;;;19.90;42.00;;;;;;10422232;28;20224;-71
2023/09/30 08:24:53;;;;;;;2.40;1.77;;;20.00;41.70;;;;;;10420046;28;20232;-71
2023/09/30 08:29:58;;;;;;;3.87;2.20;;;20.10;41.60;;;;;;10415607;28;20245;-71
2023/09/30 08:35:03;;;;;;;2.07;1.50;;;20.10;41.70;;;;;;10420047;28;20230;-72
2023/09/30 08:40:09;;;;;;;1.30;1.20;;;20.30;41.60;;;;;;10420000;28;21006;-71
2023/09/30 08:45:17;;;;;;;1.00;0.90;;;20.40;41.50;;;;;;10414628;28;20221;-71
2023/09/30 08:50:23;;;;;;;1.43;1.00;;;20.40;41.30;;;;;;10415156;28;20926;-71
2023/09/30 08:55:28;;;;;;;0.90;0.90;;;20.50;41.20;;;;;;10416532;28;20896;-71
2023/09/30 09:00:32;;;;;;;1.10;1.00;;;20.70;41.20;;;;;;10413877;28;20239;-71
2023/09/30 09:05:36;;;;;;;0.90;0.90;;;20.70;40.80;;;;;;10411391;28;20253;-71
2023/09/30 09:10:55;;;;;;;1.20;1.10;;;20.80;40.80;;;;;;10413257;28;20221;-71
2023/09/30 09:16:10;;;;;;;1.40;1.10;;;21.00;40.80;;;;;;10410654;28;20221;-71
2023/09/30 09:21:15;;;;;;;1.50;1.40;;;21.10;40.40;;;;;;10414531;28;20253;-71
2023/09/30 09:26:27;;;;;;;3.27;1.30;;;21.20;40.20;;;;;;10416959;28;20224;-70
2023/09/30 09:31:34;;;;;;;1.20;1.10;;;21.20;40.00;;;;;;10414158;28;20321;-71
2023/09/30 09:36:43;;;;;;;1.60;1.50;;;21.40;40.10;;;;;;10411559;28;20229;-71
2023/09/30 09:41:53;;;;;;;1.50;1.40;;;21.60;39.90;;;;;;10416049;28;20235;-71
2023/09/30 09:46:59;;;;;;;2.00;1.77;;;21.70;39.80;;;;;;10416941;28;20224;-71
2023/09/30 09:52:03;;;;;;;1.80;1.70;;;21.90;38.20;;;;;;10415951;28;20295;-71
2023/09/30 09:57:10;;;;;;;2.20;1.50;;;22.00;38.50;;;;;;10409904;28;20775;-71
2023/09/30 10:02:17;;;;;;;2.60;1.80;;;22.00;38.90;;;;;;10408326;28;20275;-70
2023/09/30 10:07:23;;;;;;;2.07;1.70;;;22.20;38.50;;;;;;10408801;28;20260;-71
2023/09/30 10:12:27;;;;;;;2.17;1.87;;;22.30;38.50;;;;;;10410375;28;20228;-71
2023/09/30 10:17:59;;;;;;;1.87;1.73;;;22.40;38.60;;;;;;10412853;28;20278;-70
2023/09/30 10:23:24;;;;;;;2.10;1.90;;;22.50;38.30;;;;;;10412364;28;20259;-70
2023/09/30 10:28:40;;;;;;;1.83;1.70;;;22.70;37.30;;;;;;10419057;28;20239;-70
2023/09/30 10:34:19;;;;;;;2.30;2.03;;;22.80;37.40;;;;;;10418101;28;20216;-70
2023/09/30 10:39:56;;;;;;;2.30;2.10;;;22.90;38.40;;;;;;10417576;28;20772;-70
2023/09/30 10:44:59;;;;;;;2.73;2.30;;;23.00;37.00;;;;;;10426740;28;20225;-72
2023/09/30 10:50:04;;;;;;;3.50;2.70;;;23.20;37.60;;;;;;10420435;28;20240;-71
2023/09/30 10:55:09;;;;;;;3.23;2.67;;;23.20;37.10;;;;;;10420680;28;20229;-71
2023/09/30 11:00:16;;;;;;;3.00;2.50;;;23.30;36.10;;;;;;10422804;28;20233;-71
2023/09/30 11:05:20;;;;;;;4.00;2.73;;;23.40;36.00;;;;;;10423696;28;20317;-72
2023/09/30 11:10:50;;;;;;;3.77;2.63;;;23.50;36.00;;;;;;10415099;28;20316;-72
2023/09/30 11:16:02;;;;;;;3.57;3.00;;;23.50;34.70;;;;;;10420336;28;20221;-71
2023/09/30 11:21:08;;;;;;;3.83;3.17;;;23.50;33.80;;;;;;10421293;28;20229;-71
2023/09/30 11:26:13;;;;;;;5.77;3.43;;;23.50;34.30;;;;;;10416125;28;20229;-72
2023/09/30 11:31:18;;;;;;;4.43;3.50;;;23.50;34.00;;;;;;10421808;28;20608;-71
2023/09/30 11:36:22;;;;;;;4.37;3.57;;;23.40;34.10;;;;;;10420515;28;20280;-72
2023/09/30 11:41:36;;;;;;;6.30;4.20;;;23.30;34.30;;;;;;10420128;28;20316;-71
2023/09/30 11:47:00;;;;;;;4.97;3.43;;;23.30;32.90;;;;;;10423632;28;20270;-71
2023/09/30 11:52:06;;;;;;;8.30;4.03;;;23.40;32.90;;;;;;10418227;28;20225;-71
2023/09/30 11:57:15;;;;;;;4.70;4.00;;;23.40;33.30;;;;;;10423576;28;20221;-71
2023/09/30 12:02:18;;;;;;;5.97;4.20;;;23.50;32.60;;;;;;10419866;28;20778;-71
2023/09/30 12:07:21;;;;;;;6.23;4.33;;;23.50;33.40;;;;;;10418618;28;21031;-71
2023/09/30 12:12:26;;;;;;;6.83;4.27;;;23.50;33.00;;;;;;10419918;28;20320;-71
2023/09/30 12:17:29;;;;;;;7.83;4.63;;;23.60;31.90;;;;;;10424083;28;20324;-71
2023/09/30 12:22:33;;;;;;;6.73;4.47;;;23.60;32.30;;;;;;10419768;28;20229;-71
2023/09/30 12:27:39;;;;;;;8.23;5.47;;;23.70;32.50;;;;;;10422372;28;20233;-71
2023/09/30 12:32:43;;;;;;;7.47;5.33;;;23.70;30.90;;;;;;10414203;28;20233;-71
2023/09/30 12:37:46;;;;;;;7.13;5.20;;;23.70;31.80;;;;;;10413215;28;20236;-71
2023/09/30 12:42:50;;;;;;;6.67;4.93;;;23.70;31.60;;;;;;10417637;28;20323;-71
2023/09/30 12:47:56;;;;;;;6.40;4.80;;;23.80;31.50;;;;;;10420579;28;20237;-71
2023/09/30 12:52:59;;;;;;;7.60;5.30;;;23.80;31.30;;;;;;10414025;28;20254;-71
2023/09/30 12:58:05;;;;;;;7.57;4.93;;;23.80;31.30;;;;;;10416746;28;20223;-71
2023/09/30 13:03:08;;;;;;;7.40;4.80;;;23.70;30.70;;;;;;10411191;28;20320;-71
2023/09/30 13:08:11;;;;;;;6.77;4.90;;;23.80;31.20;;;;;;10419129;28;20284;-70
2023/09/30 13:13:15;;;;;;;7.33;5.03;;;23.70;31.20;;;;;;10419181;28;20244;-71
2023/09/30 13:18:19;;;;;;;8.67;6.00;;;23.70;30.40;;;;;;10418094;28;20240;-71
2023/09/30 13:23:22;;;;;;;7.87;5.60;;;23.70;30.80;;;;;;10419121;28;20237;-72
2023/09/30 13:28:28;;;;;;;6.17;4.50;;;23.80;31.00;;;;;;10416571;28;20237;-71
2023/09/30 13:33:32;;;;;;;6.13;4.27;;;23.80;30.30;;;;;;10419574;28;20317;-72
2023/09/30 13:38:35;;;;;;;8.00;5.30;;;23.80;30.80;;;;;;10415691;28;20301;-72
2023/09/30 13:43:39;;;;;;;7.70;5.50;;;23.90;31.00;;;;;;10417936;28;20588;-72
2023/09/30 13:48:43;;;;;;;8.77;6.13;;;23.90;29.90;;;;;;10412231;28;20233;-70
2023/09/30 13:53:46;;;;;;;7.33;5.27;;;23.90;29.80;;;;;;10410022;28;20904;-71
2023/09/30 13:58:52;;;;;;;8.60;5.57;;;23.90;29.90;;;;;;10420275;28;20229;-72
2023/09/30 14:03:57;;;;;;;7.63;5.13;;;23.80;29.90;;;;;;10423532;28;20283;-71
2023/09/30 14:09:02;;;;;;;9.33;5.70;;;23.80;29.90;;;;;;10422153;28;20723;-71
2023/09/30 14:14:09;;;;;;;7.60;5.50;;;23.80;30.00;;;;;;10418078;28;20301;-71
2023/09/30 14:19:13;;;;;;;8.47;5.50;;;23.80;29.80;;;;;;10426836;28;20237;-72
2023/09/30 14:24:17;;;;;;;7.53;5.27;;;23.90;30.00;;;;;;10421023;28;20234;-72
2023/09/30 14:29:21;;;;;;;7.47;5.30;;;23.80;29.90;;;;;;10429367;28;20241;-73
2023/09/30 14:34:25;;;;;;;8.07;5.70;;;23.80;29.50;;;;;;10427919;28;20225;-73
2023/09/30 14:39:28;;;;;;;7.33;5.27;;;23.80;29.80;;;;;;10422275;28;20932;-71
2023/09/30 14:44:33;;;;;;;8.60;5.80;;;23.80;29.70;;;;;;10426663;28;20604;-71
2023/09/30 14:49:36;;;;;;;8.03;5.73;;;23.80;29.40;;;;;;10419968;28;20671;-72
2023/09/30 14:54:39;;;;;;;10.10;6.20;;;23.70;29.70;;;;;;10426607;28;20321;-72
2023/09/30 14:59:44;;;;;;;7.60;5.30;;;23.70;29.70;;;;;;10426166;28;20232;-72
2023/09/30 15:04:47;;;;;;;7.83;5.50;;;23.70;29.60;;;;;;10423106;28;20715;-72
2023/09/30 15:09:52;;;;;;;9.97;6.00;;;23.70;30.00;;;;;;10424396;28;20279;-71
2023/09/30 15:14:56;;;;;;;12.90;6.10;;;23.80;30.00;;;;;;10418090;28;20275;-71
2023/09/30 15:20:00;;;;;;;8.87;6.00;;;23.80;29.80;;;;;;10418678;28;21161;-72
2023/09/30 15:25:04;;;;;;;8.30;5.50;;;23.80;30.00;;;;;;10418088;28;20821;-72
2023/09/30 15:30:10;;;;;;;7.40;5.67;;;23.80;30.00;;;;;;10420407;28;20232;-71
2023/09/30 15:35:13;;;;;;;8.00;6.00;;;23.80;29.80;;;;;;10421358;28;20570;-72
2023/09/30 15:40:17;;;;;;;8.07;5.67;;;23.80;30.00;;;;;;10422184;28;20261;-73
2023/09/30 15:45:23;;;;;;;7.47;5.40;;;23.80;30.00;;;;;;10423442;28;20222;-72
2023/09/30 15:50:26;;;;;;;8.17;5.57;;;23.80;29.70;;;;;;10420319;28;20234;-71
2023/09/30 15:55:29;;;;;;;7.93;5.53;;;23.80;30.00;;;;;;10422393;28;20229;-71
2023/09/30 16:00:37;;;;;;;6.70;5.03;;;23.80;30.20;;;;;;10421395;28;20224;-71
2023/09/30 16:05:41;;;;;;;8.50;5.43;;;23.70;29.90;;;;;;10424668;28;20235;-71
2023/09/30 16:10:45;;;;;;;8.17;5.73;;;23.70;30.10;;;;;;10420635;28;20226;-71
2023/09/30 16:15:50;;;;;;;9.40;5.63;;;23.60;29.90;;;;;;10426173;28;20225;-71
2023/09/30 16:20:53;;;;;;;7.20;5.17;;;23.60;29.80;;;;;;10418822;28;20287;-71
2023/09/30 16:25:57;;;;;;;9.03;5.30;;;23.50;30.10;;;;;;10418466;28;20271;-71
2023/09/30 16:31:02;;;;;;;10.77;5.40;;;23.40;30.40;;;;;;10421017;28;20235;-71
2023/09/30 16:36:06;;;;;;;7.27;5.60;;;23.30;30.60;;;;;;10422269;28;20229;-71
2023/09/30 16:41:09;;;;;;;9.77;5.80;;;23.30;30.70;;;;;;10422115;28;20241;-71
2023/09/30 16:46:15;;;;;;;9.50;5.83;;;23.20;30.90;;;;;;10417192;28;20232;-71
2023/09/30 16:51:19;;;;;;;9.33;5.80;;;23.10;31.00;;;;;;10415503;28;20313;-71
2023/09/30 16:56:22;;;;;;;11.90;5.73;;;23.00;31.00;;;;;;10420549;28;20282;-71
2023/09/30 17:01:27;;;;;;;11.80;6.60;;;22.90;31.00;;;;;;10420410;28;20626;-71
2023/09/30 17:06:30;;;;;;;9.53;5.97;;;22.80;31.20;;;;;;10419618;28;20765;-71
2023/09/30 17:11:34;;;;;;;8.73;5.63;;;22.60;31.10;;;;;;10418006;28;20256;-71
2023/09/30 17:16:38;;;;;;;8.03;5.17;;;22.60;31.40;;;;;;10414218;28;20233;-71
2023/09/30 17:21:41;;;;;;;11.50;5.93;;;22.50;31.70;;;;;;10416734;28;20245;-71
2023/09/30 17:26:45;;;;;;;9.33;6.20;;;22.40;31.60;;;;;;10417957;28;20990;-71
2023/09/30 17:31:50;;;;;;;8.67;5.43;;;22.40;31.70;;;;;;10419134;28;20225;-71
2023/09/30 17:36:53;;;;;;;7.23;4.60;;;22.30;31.90;;;;;;10416232;28;20225;-71
2023/09/30 17:41:56;;;;;;;8.17;5.47;;;22.20;31.70;;;;;;10417169;28;20714;-71
2023/09/30 17:47:01;;;;;;;8.17;6.20;;;22.10;31.70;;;;;;10420080;28;20240;-71
2023/09/30 17:52:05;;;;;;;8.53;5.50;;;22.00;31.80;;;;;;10411199;28;20320;-71
2023/09/30 17:57:10;;;;;;;8.43;5.63;;;21.90;31.60;;;;;;10414814;28;20773;-71
2023/09/30 18:02:15;;;;;;;12.40;10.17;;;21.80;31.70;;;;;;10415582;28;20225;-74
2023/09/30 18:07:18;;;;;;;15.77;11.73;;;21.60;31.80;;;;;;10423648;28;20310;-72
2023/09/30 18:12:21;;;;;;;13.30;10.27;;;21.50;31.90;;;;;;10417248;28;20233;-71
2023/09/30 18:17:26;;;;;;;9.33;7.43;;;21.30;31.90;;;;;;10419044;28;20235;-72
2023/09/30 18:22:29;;;;;;;10.37;7.00;;;21.30;32.20;;;;;;10419464;28;20225;-72
2023/09/30 18:27:32;;;;;;;8.60;6.57;;;21.20;32.10;;;;;;10422915;28;20252;-72
2023/09/30 18:32:37;;;;;;;10.00;6.57;;;21.10;32.00;;;;;;10422094;28;20232;-72
2023/09/30 18:37:41;;;;;;;7.33;5.53;;;21.00;32.10;;;;;;10424252;28;20285;-72
2023/09/30 18:42:44;;;;;;;8.33;6.00;;;20.80;32.20;;;;;;10418994;28;20239;-72
2023/09/30 18:47:50;;;;;;;8.40;5.70;;;20.60;32.40;;;;;;10421999;28;20289;-72
2023/09/30 18:52:55;;;;;;;9.50;6.30;;;20.50;32.70;;;;;;10428244;28;20232;-72
2023/09/30 18:57:59;;;;;;;10.80;6.87;;;20.50;32.50;;;;;;10424640;28;20715;-72
2023/09/30 19:03:05;;;;;;;9.47;6.43;;;20.40;32.50;;;;;;10432221;28;20691;-71
2023/09/30 19:08:10;;;;;;;8.87;6.50;;;20.10;32.70;;;;;;10422409;28;20233;-73
2023/09/30 19:13:14;;;;;;;8.13;6.10;;;19.90;32.80;;;;;;10416361;28;20241;-72
2023/09/30 19:18:19;;;;;;;9.90;6.87;;;19.70;33.00;;;;;;10417228;28;20279;-72
2023/09/30 19:23:22;;;;;;;9.10;5.73;;;19.50;33.30;;;;;;10412780;28;20229;-72
2023/09/30 19:28:26;;;;;;;9.53;6.07;;;19.30;33.30;;;;;;10421447;28;20257;-73
2023/09/30 19:33:31;;;;;;;9.13;5.73;;;19.10;33.50;;;;;;10415333;28;20225;-71
2023/09/30 19:38:35;;;;;;;9.90;6.40;;;19.10;33.90;;;;;;10415004;28;20229;-72
2023/09/30 19:43:38;;;;;;;8.33;6.63;;;19.10;33.80;;;;;;10412019;28;20223;-71
2023/09/30 19:48:43;;;;;;;9.83;6.57;;;19.10;33.80;;;;;;10414394;28;20293;-71
2023/09/30 19:53:46;;;;;;;9.30;6.87;;;19.10;33.90;;;;;;10412631;28;20249;-72
2023/09/30 19:58:49;;;;;;;10.27;6.37;;;19.00;33.60;;;;;;10412845;28;20232;-71
2023/09/30 20:03:53;;;;;;;7.40;6.10;;;18.80;33.80;;;;;;10414527;28;20332;-71
2023/09/30 20:08:58;;;;;;;7.83;5.90;;;18.70;34.30;;;;;;10411826;28;20287;-72
2023/09/30 20:14:02;;;;;;;7.90;5.97;;;18.70;34.30;;;;;;10411079;28;20279;-72
2023/09/30 20:19:06;;;;;;;9.23;6.33;;;18.70;34.30;;;;;;10410023;28;20221;-73
2023/09/30 20:24:10;;;;;;;10.30;7.07;;;18.70;34.50;;;;;;10410641;28;20719;-72
2023/09/30 20:29:13;;;;;;;9.60;6.73;;;18.70;34.10;;;;;;10401506;28;20233;-70
2023/09/30 20:34:18;;;;;;;9.27;6.33;;;18.60;34.10;;;;;;10397896;28;20224;-71
2023/09/30 20:39:21;;;;;;;11.07;6.70;;;18.40;34.40;;;;;;10396017;28;22368;-71
2023/09/30 20:44:24;;;;;;;8.70;6.40;;;18.30;34.20;;;;;;10399563;28;20764;-74
2023/09/30 20:49:29;;;;;;;9.33;6.67;;;18.20;34.60;;;;;;10396584;28;20564;-73
2023/09/30 20:54:32;;;;;;;9.23;7.10;;;18.20;34.90;;;;;;10396104;28;20229;-70
2023/09/30 20:59:36;;;;;;;8.60;6.40;;;18.10;34.80;;;;;;10397681;28;20239;-70
2023/09/30 21:04:41;;;;;;;10.93;7.07;;;18.00;34.70;;;;;;10390940;28;20699;-70
2023/09/30 21:09:45;;;;;;;10.23;6.63;;;17.80;34.70;;;;;;10392251;28;20229;-70
2023/09/30 21:14:49;;;;;;;8.30;6.10;;;17.70;34.50;;;;;;10391233;28;20247;-70
2023/09/30 21:19:53;;;;;;;9.73;7.03;;;17.50;35.10;;;;;;10394355;28;20234;-70
2023/09/30 21:24:57;;;;;;;11.43;7.80;;;17.50;35.60;;;;;;10393753;28;20240;-70
2023/09/30 21:30:01;;;;;;;9.50;7.83;;;17.40;35.70;;;;;;10404489;28;20244;-70
2023/09/30 21:35:06;;;;;;;12.27;9.17;;;17.50;35.70;;;;;;10409413;28;20306;-70
2023/09/30 21:40:11;;;;;;;12.03;7.90;;;17.40;36.20;;;;;;10407453;28;20233;-70
2023/09/30 21:45:16;;;;;;;9.60;6.77;;;17.40;36.00;;;;;;10407350;28;20813;-70
2023/09/30 21:50:20;;;;;;;11.00;7.10;;;17.30;35.90;;;;;;10410514;28;20236;-70
2023/09/30 21:55:23;;;;;;;10.07;7.00;;;17.30;36.30;;;;;;10410673;28;20747;-70
2023/09/30 22:00:37;;;;;;;9.17;6.57;;;17.10;36.00;;;;;;10410352;28;20233;-70
2023/09/30 22:05:42;;;;;;;8.77;6.63;;;16.90;36.30;;;;;;10413360;28;20730;-70
2023/09/30 22:10:46;;;;;;;9.33;5.97;;;16.90;36.90;;;;;;10408160;28;20824;-69
2023/09/30 22:15:49;;;;;;;9.77;6.60;;;16.90;36.70;;;;;;10412174;28;20807;-69
2023/09/30 22:20:55;;;;;;;12.00;6.70;;;16.80;36.70;;;;;;10408865;28;20710;-69
2023/09/30 22:25:59;;;;;;;9.03;6.37;;;16.90;37.40;;;;;;10423672;28;20771;-70
2023/09/30 22:31:02;;;;;;;9.53;6.90;;;16.90;36.80;;;;;;10425631;28;20711;-70
2023/09/30 22:36:07;;;;;;;10.83;7.07;;;16.90;36.70;;;;;;10417207;28;20233;-70
2023/09/30 22:41:10;;;;;;;9.33;6.33;;;16.90;37.10;;;;;;10424619;28;20230;-70
2023/09/30 22:46:14;;;;;;;9.10;6.70;;;16.80;36.70;;;;;;10422036;28;20900;-70
2023/09/30 22:51:19;;;;;;;9.50;6.47;;;16.80;36.90;;;;;;10419901;28;20723;-70
2023/09/30 22:56:23;;;;;;;9.97;7.00;;;16.70;37.30;;;;;;10417442;28;20361;-70
2023/09/30 23:01:26;;;;;;;9.43;6.20;;;16.80;37.10;;;;;;10422040;28;20291;-70
2023/09/30 23:06:32;;;;;;;9.87;6.90;;;16.80;37.10;;;;;;10420792;28;20296;-70
2023/09/30 23:11:36;;;;;;;9.53;6.77;;;16.70;37.30;;;;;;10421074;28;20284;-70
2023/09/30 23:16:39;;;;;;;9.00;6.60;;;16.50;37.00;;;;;;10417090;28;20726;-70
2023/09/30 23:21:45;;;;;;;8.63;6.33;;;16.50;37.00;;;;;;10420929;28;20271;-70
2023/09/30 23:26:49;;;;;;;10.30;6.53;;;16.50;37.70;;;;;;10419611;28;21778;-70
2023/09/30 23:31:52;;;;;;;9.67;7.00;;;16.40;37.20;;;;;;10420953;28;20319;-70
2023/09/30 23:36:59;;;;;;;8.00;5.87;;;16.40;37.30;;;;;;10417757;28;20294;-70
2023/09/30 23:42:04;;;;;;;7.27;5.47;;;16.30;37.60;;;;;;10417146;28;20221;-70
2023/09/30 23:47:08;;;;;;;7.57;5.70;;;16.30;37.40;;;;;;10410087;28;20226;-70
2023/09/30 23:52:13;;;;;;;7.37;5.80;;;16.30;37.40;;;;;;10415475;28;20304;-70
2023/09/30 23:57:17;;;;;;;6.97;5.10;;;16.40;37.70;;;;;;10414027;28;20237;-70
